Portada
METAR-TAF:

METAR-TAF

Aeroports :

Dublin, Geòrgia, Estats Units d'Amèrica

latitud: 32-33-52N, longitud: 082-59-07W, altitud: 94 m

Observació

L'informe es va fer fa 29 minuts, a les 11:15 UTC
Vent calma
Temperatura 21°C
Humitat 94%
Pressió 1025 hPa
Visibilitat: 16.1 km
Núvols disperses a una alçada de 1200 ft

METAR: KDBN 231115Z AUTO 00000KT 10SM SCT012 21/20 A3026 RMK AO2

Hora: 07:44 (11:44 UTC)


TAF: manca

Observacions i pronòstics meteorològics de més de 4000 aeroports (METAR i TAF).

Les estacions disponibles són els punts grocs i vermells al mapa.

Posi el ratolí al punt desitjat per veure el nom de l'estació.

Feu clic per veure les observacions i els pronòstics meteorològics.

Per canviar el mapa: feu clic els botons verds amb una creu de color negre per apropar; al botó verd amb un guió per allunyar la imatge; o en les fletxes verdes per a mapes adjacents.


METAR-TAF: